Time;durP1;ratioP1;P1;durP2;ratioP2;P2;SDS_P1;SDS_P2;PMS_P1;PMS_P2;Temp;Humidity;BMP_temperature;BMP_pressure;BME280_temperature;BME280_humidity;BME280_pressure;Samples;Min_cycle;Max_cycle;Signal;HPM_P1;HPM_P2
2021/09/29 00:02:08;;;;;;;5.03;1.70;;;11.00;99.90;;;;;;20995759;28;20468;-55
2021/09/29 00:12:10;;;;;;;2.28;1.52;;;10.90;99.90;;;;;;21054390;28;20101;-52
2021/09/29 00:22:12;;;;;;;2.28;1.60;;;10.90;99.90;;;;;;21077794;28;20032;-55
2021/09/29 00:32:16;;;;;;;1.77;1.20;;;10.90;99.90;;;;;;21077349;28;20044;-55
2021/09/29 00:42:18;;;;;;;4.28;1.60;;;10.60;99.90;;;;;;21130975;28;20097;-54
2021/09/29 00:52:20;;;;;;;2.88;1.60;;;10.30;99.90;;;;;;21159052;28;20077;-55
2021/09/29 01:02:22;;;;;;;4.60;1.92;;;10.20;99.90;;;;;;21160578;28;20463;-52
2021/09/29 01:12:29;;;;;;;2.38;1.42;;;10.30;99.90;;;;;;21157544;28;20100;-53
2021/09/29 01:22:50;;;;;;;3.00;1.58;;;10.60;99.90;;;;;;21157719;28;20066;-53
2021/09/29 01:32:54;;;;;;;1.95;1.30;;;10.90;99.90;;;;;;21156734;28;20065;-51
2021/09/29 01:42:56;;;;;;;2.70;1.55;;;11.00;99.90;;;;;;21213687;27;20043;-55
2021/09/29 01:53:00;;;;;;;3.88;1.60;;;11.20;99.90;;;;;;21164553;27;20038;-54
2021/09/29 02:03:03;;;;;;;3.80;1.60;;;11.40;99.90;;;;;;21155303;28;20447;-56
2021/09/29 02:13:05;;;;;;;2.88;1.48;;;11.40;99.90;;;;;;21153411;28;20084;-53
2021/09/29 02:23:08;;;;;;;3.08;1.73;;;11.40;99.90;;;;;;21154543;28;20529;-52
2021/09/29 02:33:11;;;;;;;9.35;1.58;;;11.40;99.90;;;;;;21133774;28;20069;-52
2021/09/29 02:43:13;;;;;;;3.03;1.95;;;11.40;99.90;;;;;;21090275;28;20047;-51
2021/09/29 02:53:15;;;;;;;3.92;2.38;;;11.30;99.90;;;;;;21068160;28;20479;-55
2021/09/29 03:03:17;;;;;;;3.78;2.03;;;11.00;99.90;;;;;;21067782;28;20028;-50
2021/09/29 03:13:19;;;;;;;2.60;1.70;;;10.90;99.90;;;;;;21067600;28;20475;-55
2021/09/29 03:23:21;;;;;;;3.22;2.13;;;10.80;99.90;;;;;;21078995;28;20302;-56
2021/09/29 03:33:24;;;;;;;3.95;1.88;;;10.80;99.90;;;;;;21082015;28;20039;-51
2021/09/29 03:43:26;;;;;;;2.92;1.60;;;11.00;99.90;;;;;;21145423;28;20544;-53
2021/09/29 03:53:28;;;;;;;2.63;1.67;;;11.20;99.90;;;;;;21164217;28;20081;-52
2021/09/29 04:03:30;;;;;;;3.25;1.75;;;11.20;99.90;;;;;;21164479;28;20028;-53
2021/09/29 04:13:32;;;;;;;3.65;2.08;;;11.20;99.90;;;;;;21162645;28;20043;-55
2021/09/29 04:23:35;;;;;;;6.82;2.15;;;11.20;99.90;;;;;;21162269;28;20038;-50
2021/09/29 04:33:36;;;;;;;2.70;1.60;;;11.30;99.90;;;;;;21160545;28;20487;-51
2021/09/29 04:43:38;;;;;;;2.45;1.60;;;11.30;99.90;;;;;;21227067;27;20399;-55
2021/09/29 04:53:40;;;;;;;2.60;1.73;;;11.40;99.90;;;;;;21163928;27;20089;-51
2021/09/29 05:03:42;;;;;;;2.53;1.95;;;11.50;99.90;;;;;;21159310;28;20032;-56
2021/09/29 05:13:45;;;;;;;3.08;1.95;;;11.60;99.90;;;;;;21231936;27;20019;-53
2021/09/29 05:23:48;;;;;;;2.90;2.05;;;11.70;99.90;;;;;;21242523;27;20031;-54
2021/09/29 05:33:50;;;;;;;2.70;1.80;;;11.50;99.90;;;;;;21238871;27;20065;-52
2021/09/29 05:43:52;;;;;;;4.65;2.15;;;11.40;99.90;;;;;;21235480;27;20092;-56
2021/09/29 05:53:53;;;;;;;3.15;1.88;;;11.40;99.90;;;;;;21157244;27;20027;-56
2021/09/29 06:03:55;;;;;;;3.08;1.77;;;11.50;99.90;;;;;;21154352;28;20504;-55
2021/09/29 06:14:01;;;;;;;2.70;1.77;;;11.60;99.90;;;;;;21153220;28;20081;-54
2021/09/29 06:24:04;;;;;;;7.35;2.00;;;11.70;99.90;;;;;;21153174;28;20031;-57
2021/09/29 06:34:06;;;;;;;2.55;1.80;;;12.10;99.90;;;;;;21153296;28;20112;-56
2021/09/29 06:44:08;;;;;;;2.45;1.60;;;12.50;99.90;;;;;;21082425;28;20048;-56
2021/09/29 06:54:11;;;;;;;1.98;1.40;;;13.10;99.90;;;;;;21073936;28;20043;-56
2021/09/29 07:04:13;;;;;;;1.75;1.30;;;14.00;99.90;;;;;;21084581;28;20035;-56
2021/09/29 07:14:14;;;;;;;3.03;1.40;;;14.80;99.90;;;;;;21065512;28;20066;-51
2021/09/29 07:24:16;;;;;;;3.00;2.10;;;15.50;99.90;;;;;;21082818;28;20032;-50
2021/09/29 07:34:20;;;;;;;2.88;1.30;;;15.40;99.90;;;;;;21081962;28;20035;-50
2021/09/29 07:44:22;;;;;;;1.75;1.23;;;15.50;99.90;;;;;;21153005;28;20044;-52
2021/09/29 07:54:27;;;;;;;1.50;1.40;;;16.60;99.90;;;;;;21165202;28;20207;-51
2021/09/29 08:04:29;;;;;;;1.88;1.50;;;17.10;99.90;;;;;;21163695;28;20043;-49
2021/09/29 08:14:32;;;;;;;2.70;1.63;;;17.60;99.90;;;;;;21163159;28;20024;-54
2021/09/29 08:24:47;;;;;;;1.98;1.50;;;18.40;99.90;;;;;;21162726;28;20036;-55
2021/09/29 08:34:58;;;;;;;2.60;1.40;;;19.10;99.90;;;;;;21159589;28;20482;-54
2021/09/29 08:45:11;;;;;;;1.85;1.52;;;19.40;99.90;;;;;;21231337;27;20499;-52
2021/09/29 09:26:13;;;;;;;3.30;2.10;;;20.10;99.90;;;;;;21156818;28;20035;-51
2021/09/29 09:36:32;;;;;;;3.40;2.08;;;19.80;99.90;;;;;;21157052;28;20043;-51
2021/09/29 09:46:34;;;;;;;2.90;1.80;;;19.90;99.90;;;;;;21134604;28;20349;-55
2021/09/29 09:56:37;;;;;;;2.13;1.90;;;20.50;99.90;;;;;;21156127;28;20475;-56
2021/09/29 10:06:39;;;;;;;2.40;1.60;;;21.10;99.90;;;;;;21154441;28;20039;-52
2021/09/29 10:27:09;;;;;;;2.40;1.73;;;21.30;98.90;;;;;;21153632;28;20039;-50
2021/09/29 10:37:23;;;;;;;2.97;1.83;;;21.70;99.90;;;;;;21134867;28;20043;-50
2021/09/29 10:47:45;;;;;;;3.58;2.30;;;22.30;97.90;;;;;;21152623;28;20023;-54
2021/09/29 12:19:54;;;;;;;2.35;2.13;;;23.30;96.10;;;;;;21163333;28;20042;-57
2021/09/29 12:29:57;;;;;;;3.50;2.83;;;23.00;96.10;;;;;;21162249;28;20027;-52
2021/09/29 12:39:59;;;;;;;2.60;2.03;;;22.80;97.00;;;;;;21195078;27;20505;-54
2021/09/29 12:50:23;;;;;;;2.90;2.42;;;21.50;97.10;;;;;;21194192;27;20446;-52
2021/09/29 13:00:25;;;;;;;3.88;2.55;;;21.10;99.20;;;;;;21160087;28;20031;-55
2021/09/29 13:10:27;;;;;;;3.22;2.47;;;21.30;96.30;;;;;;21154357;28;20032;-52
2021/09/29 13:20:31;;;;;;;4.18;2.53;;;21.60;97.80;;;;;;21158528;28;20038;-51
2021/09/29 13:40:56;;;;;;;4.57;2.95;;;21.00;98.80;;;;;;21064912;28;20051;-56
2021/09/29 13:50:57;;;;;;;5.78;3.78;;;21.00;99.00;;;;;;21068350;28;20089;-51
2021/09/29 14:42:01;;;;;;;9.48;4.97;;;19.00;99.90;;;;;;21120636;28;20051;-58
2021/09/29 14:52:03;;;;;;;7.70;4.90;;;18.30;99.90;;;;;;21152491;28;20042;-54
2021/09/29 15:02:06;;;;;;;9.55;5.85;;;17.70;99.90;;;;;;21153343;28;20478;-55
2021/09/29 15:12:08;;;;;;;10.00;6.57;;;17.10;99.90;;;;;;21153016;28;20031;-58
2021/09/29 15:53:06;;;;;;;8.50;5.43;;;15.80;99.90;;;;;;21081249;28;20032;-56
2021/09/29 16:03:35;;;;;;;9.85;5.40;;;15.20;99.90;;;;;;21079832;28;20081;-57
2021/09/29 16:13:43;;;;;;;8.60;5.22;;;14.70;99.90;;;;;;21079211;28;20036;-54
2021/09/29 16:44:19;;;;;;;;;;;13.60;99.90;;;;;;21214108;27;20380;-56
2021/09/29 16:54:24;;;;;;;15.93;7.78;;;13.20;99.90;;;;;;21160597;28;19919;-57
2021/09/29 17:04:28;;;;;;;12.55;7.10;;;12.90;99.90;;;;;;21159507;28;20028;-52
2021/09/29 17:14:30;;;;;;;15.73;8.60;;;12.60;99.90;;;;;;21140485;28;20028;-56
2021/09/29 17:24:32;;;;;;;19.20;8.48;;;12.30;99.90;;;;;;21159014;28;20036;-52
2021/09/29 17:34:42;;;;;;;15.55;9.40;;;12.20;99.90;;;;;;21148208;28;20035;-52
2021/09/29 17:55:07;;;;;;;21.27;11.35;;;11.80;99.90;;;;;;21156039;28;20543;-51
2021/09/29 18:15:31;;;;;;;18.10;8.95;;;11.50;99.90;;;;;;21154590;28;20136;-51
2021/09/29 18:25:39;;;;;;;16.63;8.38;;;11.40;99.90;;;;;;21153420;28;20031;-54
2021/09/29 18:35:44;;;;;;;13.85;7.35;;;11.40;99.90;;;;;;21153459;28;20031;-52
2021/09/29 18:45:48;;;;;;;15.68;7.82;;;11.30;99.90;;;;;;21153298;28;20448;-53
2021/09/29 18:55:55;;;;;;;12.73;7.45;;;11.10;99.90;;;;;;21169068;28;20036;-53
2021/09/29 19:16:18;;;;;;;;;;;10.80;99.90;;;;;;21150953;28;20440;-52
2021/09/29 19:26:27;;;;;;;19.40;9.93;;;10.80;99.90;;;;;;21167403;28;19912;-57
2021/09/29 19:36:29;;;;;;;26.27;11.45;;;10.70;99.90;;;;;;21130700;28;20486;-52
2021/09/29 19:46:42;;;;;;;19.98;10.88;;;10.70;99.90;;;;;;21157821;28;20031;-54
2021/09/29 20:17:26;;;;;;;17.60;9.32;;;10.40;99.90;;;;;;21248971;27;19911;-56
2021/09/29 20:27:28;;;;;;;18.27;9.43;;;10.30;99.90;;;;;;21248442;27;20034;-53
2021/09/29 20:47:51;;;;;;;18.50;9.43;;;10.20;99.90;;;;;;21214678;27;20043;-55
2021/09/29 20:57:55;;;;;;;17.02;8.48;;;10.10;99.90;;;;;;21161251;28;20042;-51
2021/09/29 21:08:01;;;;;;;23.10;11.07;;;10.00;99.90;;;;;;21181042;27;20395;-52
2021/09/29 21:18:10;;;;;;;20.95;10.43;;;10.00;99.90;;;;;;21244229;27;20551;-52
2021/09/29 21:28:15;;;;;;;19.63;11.27;;;10.00;99.90;;;;;;21244140;27;20072;-51
2021/09/29 23:41:53;;;;;;;5.43;3.33;;;10.70;99.90;;;;;;21166461;28;20137;-51
2021/09/29 23:51:55;;;;;;;3.10;1.92;;;10.50;99.90;;;;;;21101276;28;20028;-50
